sensor_id;sensor_type;location;lat;lon;timestamp;temperature;humidity
61145;DHT22;47026;51.208;3.288;2022-10-19T00:01:07;12.60;99.90
61145;DHT22;47026;51.208;3.288;2022-10-19T00:03:34;12.70;99.90
61145;DHT22;47026;51.208;3.288;2022-10-19T00:06:14;12.70;99.90
61145;DHT22;47026;51.208;3.288;2022-10-19T00:08:41;12.70;99.90
61145;DHT22;47026;51.208;3.288;2022-10-19T00:11:07;12.60;99.90
61145;DHT22;47026;51.208;3.288;2022-10-19T00:13:33;12.60;99.90
61145;DHT22;47026;51.208;3.288;2022-10-19T00:16:00;12.60;99.90
61145;DHT22;47026;51.208;3.288;2022-10-19T00:18:26;12.60;99.90
61145;DHT22;47026;51.208;3.288;2022-10-19T00:20:52;12.50;99.90
61145;DHT22;47026;51.208;3.288;2022-10-19T00:23:17;12.50;99.90
61145;DHT22;47026;51.208;3.288;2022-10-19T00:25:54;12.40;99.90
61145;DHT22;47026;51.208;3.288;2022-10-19T00:28:20;12.50;99.90
61145;DHT22;47026;51.208;3.288;2022-10-19T00:30:46;12.60;99.90
61145;DHT22;47026;51.208;3.288;2022-10-19T00:33:12;12.50;99.90
61145;DHT22;47026;51.208;3.288;2022-10-19T00:35:40;12.50;99.90
61145;DHT22;47026;51.208;3.288;2022-10-19T00:38:06;12.40;99.90
61145;DHT22;47026;51.208;3.288;2022-10-19T00:40:36;12.30;99.90
61145;DHT22;47026;51.208;3.288;2022-10-19T00:43:02;12.30;99.90
61145;DHT22;47026;51.208;3.288;2022-10-19T00:45:28;12.40;99.90
61145;DHT22;47026;51.208;3.288;2022-10-19T00:47:54;12.30;99.90
61145;DHT22;47026;51.208;3.288;2022-10-19T00:50:19;12.30;99.90
61145;DHT22;47026;51.208;3.288;2022-10-19T00:52:46;12.30;99.90
61145;DHT22;47026;51.208;3.288;2022-10-19T00:55:11;12.40;99.90
61145;DHT22;47026;51.208;3.288;2022-10-19T00:57:38;12.40;99.90
61145;DHT22;47026;51.208;3.288;2022-10-19T01:00:06;12.30;99.90
61145;DHT22;47026;51.208;3.288;2022-10-19T01:02:33;12.20;99.90
61145;DHT22;47026;51.208;3.288;2022-10-19T01:05:00;12.20;99.90
61145;DHT22;47026;51.208;3.288;2022-10-19T01:07:27;12.20;99.90
61145;DHT22;47026;51.208;3.288;2022-10-19T01:09:53;12.20;99.90
61145;DHT22;47026;51.208;3.288;2022-10-19T01:15:31;12.20;99.90
61145;DHT22;47026;51.208;3.288;2022-10-19T01:18:12;12.20;99.90
61145;DHT22;47026;51.208;3.288;2022-10-19T01:26:36;12.00;99.90
61145;DHT22;47026;51.208;3.288;2022-10-19T01:34:33;11.60;99.90
61145;DHT22;47026;51.208;3.288;2022-10-19T01:37:22;11.60;99.90
61145;DHT22;47026;51.208;3.288;2022-10-19T01:40:08;11.70;99.90
61145;DHT22;47026;51.208;3.288;2022-10-19T01:42:57;11.80;99.90
61145;DHT22;47026;51.208;3.288;2022-10-19T01:45:46;11.90;99.90
61145;DHT22;47026;51.208;3.288;2022-10-19T01:48:24;11.90;99.90
61145;DHT22;47026;51.208;3.288;2022-10-19T01:50:57;12.00;99.90
61145;DHT22;47026;51.208;3.288;2022-10-19T01:53:27;12.00;99.90
61145;DHT22;47026;51.208;3.288;2022-10-19T01:55:54;11.80;99.90
61145;DHT22;47026;51.208;3.288;2022-10-19T01:58:26;11.80;99.90
61145;DHT22;47026;51.208;3.288;2022-10-19T02:00:56;11.90;99.90
61145;DHT22;47026;51.208;3.288;2022-10-19T02:03:24;11.80;99.90
61145;DHT22;47026;51.208;3.288;2022-10-19T02:05:51;11.80;99.90
61145;DHT22;47026;51.208;3.288;2022-10-19T02:08:27;11.90;99.90
61145;DHT22;47026;51.208;3.288;2022-10-19T02:10:56;11.90;99.90
61145;DHT22;47026;51.208;3.288;2022-10-19T02:13:23;11.80;99.90
61145;DHT22;47026;51.208;3.288;2022-10-19T02:15:53;11.80;99.90
61145;DHT22;47026;51.208;3.288;2022-10-19T02:18:30;11.80;99.90
61145;DHT22;47026;51.208;3.288;2022-10-19T02:21:00;11.70;99.90
61145;DHT22;47026;51.208;3.288;2022-10-19T02:23:26;11.80;99.90
61145;DHT22;47026;51.208;3.288;2022-10-19T02:25:53;11.80;99.90
61145;DHT22;47026;51.208;3.288;2022-10-19T02:28:20;11.80;99.90
61145;DHT22;47026;51.208;3.288;2022-10-19T02:30:47;11.90;99.90
61145;DHT22;47026;51.208;3.288;2022-10-19T02:33:13;11.90;99.90
61145;DHT22;47026;51.208;3.288;2022-10-19T02:35:39;11.90;99.90
61145;DHT22;47026;51.208;3.288;2022-10-19T02:38:06;11.90;99.90
61145;DHT22;47026;51.208;3.288;2022-10-19T02:40:38;12.00;99.90
61145;DHT22;47026;51.208;3.288;2022-10-19T02:43:10;12.00;99.90
61145;DHT22;47026;51.208;3.288;2022-10-19T02:45:43;11.90;99.90
61145;DHT22;47026;51.208;3.288;2022-10-19T02:48:16;11.90;99.90
61145;DHT22;47026;51.208;3.288;2022-10-19T02:50:44;11.70;99.90
61145;DHT22;47026;51.208;3.288;2022-10-19T02:53:12;11.90;99.90
61145;DHT22;47026;51.208;3.288;2022-10-19T02:55:39;11.80;99.90
61145;DHT22;47026;51.208;3.288;2022-10-19T02:58:04;11.60;99.90
61145;DHT22;47026;51.208;3.288;2022-10-19T03:00:30;11.70;99.90
61145;DHT22;47026;51.208;3.288;2022-10-19T03:02:56;11.60;99.90
61145;DHT22;47026;51.208;3.288;2022-10-19T03:05:22;11.70;99.90
61145;DHT22;47026;51.208;3.288;2022-10-19T03:07:48;11.60;99.90
61145;DHT22;47026;51.208;3.288;2022-10-19T03:10:14;11.70;99.90
61145;DHT22;47026;51.208;3.288;2022-10-19T03:12:40;11.80;99.90
61145;DHT22;47026;51.208;3.288;2022-10-19T03:15:06;11.70;99.90
61145;DHT22;47026;51.208;3.288;2022-10-19T03:17:32;11.60;99.90
61145;DHT22;47026;51.208;3.288;2022-10-19T03:19:58;11.60;99.90
61145;DHT22;47026;51.208;3.288;2022-10-19T03:22:24;11.60;99.90
61145;DHT22;47026;51.208;3.288;2022-10-19T03:24:49;11.60;99.90
61145;DHT22;47026;51.208;3.288;2022-10-19T03:27:15;11.50;99.90
61145;DHT22;47026;51.208;3.288;2022-10-19T03:29:41;11.30;99.90
61145;DHT22;47026;51.208;3.288;2022-10-19T03:32:07;11.30;99.90
61145;DHT22;47026;51.208;3.288;2022-10-19T03:34:33;11.30;99.90
61145;DHT22;47026;51.208;3.288;2022-10-19T03:36:59;11.30;99.90
61145;DHT22;47026;51.208;3.288;2022-10-19T03:39:24;11.30;99.90
61145;DHT22;47026;51.208;3.288;2022-10-19T03:41:50;11.40;99.90
61145;DHT22;47026;51.208;3.288;2022-10-19T03:44:16;11.40;99.90
61145;DHT22;47026;51.208;3.288;2022-10-19T03:46:42;11.50;99.90
61145;DHT22;47026;51.208;3.288;2022-10-19T03:49:08;11.50;99.90
61145;DHT22;47026;51.208;3.288;2022-10-19T03:51:35;11.30;99.90
61145;DHT22;47026;51.208;3.288;2022-10-19T03:54:03;11.30;99.90
61145;DHT22;47026;51.208;3.288;2022-10-19T03:56:30;11.30;99.90
61145;DHT22;47026;51.208;3.288;2022-10-19T03:58:57;11.30;99.90
61145;DHT22;47026;51.208;3.288;2022-10-19T04:01:29;11.30;99.90
61145;DHT22;47026;51.208;3.288;2022-10-19T04:04:00;11.20;99.90
61145;DHT22;47026;51.208;3.288;2022-10-19T04:06:28;11.10;99.90
61145;DHT22;47026;51.208;3.288;2022-10-19T04:08:54;11.00;99.90
61145;DHT22;47026;51.208;3.288;2022-10-19T04:11:21;11.00;99.90
61145;DHT22;47026;51.208;3.288;2022-10-19T04:13:49;10.90;99.90
61145;DHT22;47026;51.208;3.288;2022-10-19T04:16:15;11.00;99.90
61145;DHT22;47026;51.208;3.288;2022-10-19T04:18:41;11.10;99.90
61145;DHT22;47026;51.208;3.288;2022-10-19T04:21:16;11.10;99.90
61145;DHT22;47026;51.208;3.288;2022-10-19T04:23:43;11.10;99.90
61145;DHT22;47026;51.208;3.288;2022-10-19T04:26:09;11.00;99.90
61145;DHT22;47026;51.208;3.288;2022-10-19T04:28:35;11.00;99.90
61145;DHT22;47026;51.208;3.288;2022-10-19T04:31:04;11.10;99.90
61145;DHT22;47026;51.208;3.288;2022-10-19T04:44:03;11.20;99.90
61145;DHT22;47026;51.208;3.288;2022-10-19T04:46:29;11.20;99.90
61145;DHT22;47026;51.208;3.288;2022-10-19T04:48:57;11.10;99.90
61145;DHT22;47026;51.208;3.288;2022-10-19T04:51:45;11.10;99.90
61145;DHT22;47026;51.208;3.288;2022-10-19T04:54:11;11.00;99.90
61145;DHT22;47026;51.208;3.288;2022-10-19T04:56:36;10.80;99.90
61145;DHT22;47026;51.208;3.288;2022-10-19T04:59:04;10.80;99.90
61145;DHT22;47026;51.208;3.288;2022-10-19T05:01:30;10.60;99.90
61145;DHT22;47026;51.208;3.288;2022-10-19T05:03:58;10.50;99.90
61145;DHT22;47026;51.208;3.288;2022-10-19T05:06:25;10.50;99.90
61145;DHT22;47026;51.208;3.288;2022-10-19T05:08:51;10.40;99.90
61145;DHT22;47026;51.208;3.288;2022-10-19T05:11:16;10.40;99.90
61145;DHT22;47026;51.208;3.288;2022-10-19T05:13:43;10.50;99.90
61145;DHT22;47026;51.208;3.288;2022-10-19T05:16:15;10.50;99.90
61145;DHT22;47026;51.208;3.288;2022-10-19T05:18:45;10.60;99.90
61145;DHT22;47026;51.208;3.288;2022-10-19T05:21:12;10.70;99.90
61145;DHT22;47026;51.208;3.288;2022-10-19T05:23:39;10.70;99.90
61145;DHT22;47026;51.208;3.288;2022-10-19T05:26:08;10.80;99.90
61145;DHT22;47026;51.208;3.288;2022-10-19T05:28:35;10.60;99.90
61145;DHT22;47026;51.208;3.288;2022-10-19T05:31:06;10.60;99.90
61145;DHT22;47026;51.208;3.288;2022-10-19T05:36:54;10.60;99.90
61145;DHT22;47026;51.208;3.288;2022-10-19T05:39:22;10.70;99.90
61145;DHT22;47026;51.208;3.288;2022-10-19T05:41:48;10.60;99.90
61145;DHT22;47026;51.208;3.288;2022-10-19T05:44:16;10.50;99.90
61145;DHT22;47026;51.208;3.288;2022-10-19T05:46:43;10.50;99.90
61145;DHT22;47026;51.208;3.288;2022-10-19T05:49:10;10.40;99.90
61145;DHT22;47026;51.208;3.288;2022-10-19T05:51:37;10.50;99.90
61145;DHT22;47026;51.208;3.288;2022-10-19T05:54:03;10.60;99.90
61145;DHT22;47026;51.208;3.288;2022-10-19T05:56:31;10.60;99.90
61145;DHT22;47026;51.208;3.288;2022-10-19T05:59:02;10.70;99.90
61145;DHT22;47026;51.208;3.288;2022-10-19T06:01:29;10.70;99.90
61145;DHT22;47026;51.208;3.288;2022-10-19T06:03:57;10.80;99.90
61145;DHT22;47026;51.208;3.288;2022-10-19T06:06:24;10.80;99.90
61145;DHT22;47026;51.208;3.288;2022-10-19T06:08:51;10.70;99.90
61145;DHT22;47026;51.208;3.288;2022-10-19T06:11:26;10.50;99.90
61145;DHT22;47026;51.208;3.288;2022-10-19T06:13:54;10.50;99.90
61145;DHT22;47026;51.208;3.288;2022-10-19T06:16:22;10.50;99.90
61145;DHT22;47026;51.208;3.288;2022-10-19T06:18:48;10.60;99.90
61145;DHT22;47026;51.208;3.288;2022-10-19T06:21:17;10.70;99.90
61145;DHT22;47026;51.208;3.288;2022-10-19T06:23:43;10.60;99.90
61145;DHT22;47026;51.208;3.288;2022-10-19T06:26:09;10.40;99.90
61145;DHT22;47026;51.208;3.288;2022-10-19T06:28:37;10.30;99.90
61145;DHT22;47026;51.208;3.288;2022-10-19T06:31:04;10.40;99.90
61145;DHT22;47026;51.208;3.288;2022-10-19T06:33:30;10.40;99.90
61145;DHT22;47026;51.208;3.288;2022-10-19T06:36:04;10.40;99.90
61145;DHT22;47026;51.208;3.288;2022-10-19T06:38:36;10.40;99.90
61145;DHT22;47026;51.208;3.288;2022-10-19T06:41:02;10.50;99.90
61145;DHT22;47026;51.208;3.288;2022-10-19T06:43:31;10.50;99.90
61145;DHT22;47026;51.208;3.288;2022-10-19T06:45:58;10.60;99.90
61145;DHT22;47026;51.208;3.288;2022-10-19T06:48:23;10.70;99.90
61145;DHT22;47026;51.208;3.288;2022-10-19T06:50:57;10.80;99.90
61145;DHT22;47026;51.208;3.288;2022-10-19T06:53:23;10.90;99.90
61145;DHT22;47026;51.208;3.288;2022-10-19T06:58:52;10.80;99.90
61145;DHT22;47026;51.208;3.288;2022-10-19T07:01:18;10.80;99.90
61145;DHT22;47026;51.208;3.288;2022-10-19T07:03:44;10.70;99.90
61145;DHT22;47026;51.208;3.288;2022-10-19T07:06:11;10.80;99.90
61145;DHT22;47026;51.208;3.288;2022-10-19T07:08:39;11.00;99.90
61145;DHT22;47026;51.208;3.288;2022-10-19T07:11:17;11.00;99.90
61145;DHT22;47026;51.208;3.288;2022-10-19T07:13:43;11.00;99.90
61145;DHT22;47026;51.208;3.288;2022-10-19T07:16:11;11.00;99.90
61145;DHT22;47026;51.208;3.288;2022-10-19T07:18:39;11.20;99.90
61145;DHT22;47026;51.208;3.288;2022-10-19T07:21:11;11.30;99.90
61145;DHT22;47026;51.208;3.288;2022-10-19T07:23:38;11.30;99.90
61145;DHT22;47026;51.208;3.288;2022-10-19T07:26:07;11.40;99.90
61145;DHT22;47026;51.208;3.288;2022-10-19T07:28:57;11.30;99.90
61145;DHT22;47026;51.208;3.288;2022-10-19T07:31:24;11.60;99.90
61145;DHT22;47026;51.208;3.288;2022-10-19T07:33:54;11.60;99.90
61145;DHT22;47026;51.208;3.288;2022-10-19T07:36:21;11.70;99.90
61145;DHT22;47026;51.208;3.288;2022-10-19T07:38:47;11.80;99.90
61145;DHT22;47026;51.208;3.288;2022-10-19T07:41:14;11.90;99.90
61145;DHT22;47026;51.208;3.288;2022-10-19T07:43:42;12.00;99.90
61145;DHT22;47026;51.208;3.288;2022-10-19T07:46:11;12.30;99.90
61145;DHT22;47026;51.208;3.288;2022-10-19T07:48:38;12.70;99.90
61145;DHT22;47026;51.208;3.288;2022-10-19T07:51:04;13.10;99.90
61145;DHT22;47026;51.208;3.288;2022-10-19T07:53:31;13.50;99.90
61145;DHT22;47026;51.208;3.288;2022-10-19T07:56:03;14.00;99.90
61145;DHT22;47026;51.208;3.288;2022-10-19T07:58:29;14.30;99.90
61145;DHT22;47026;51.208;3.288;2022-10-19T08:01:01;14.20;99.90
61145;DHT22;47026;51.208;3.288;2022-10-19T08:03:27;14.20;99.90
61145;DHT22;47026;51.208;3.288;2022-10-19T08:05:53;14.60;99.90
61145;DHT22;47026;51.208;3.288;2022-10-19T08:08:18;14.60;99.90
61145;DHT22;47026;51.208;3.288;2022-10-19T08:10:44;14.30;99.90
61145;DHT22;47026;51.208;3.288;2022-10-19T08:13:10;14.00;99.90
61145;DHT22;47026;51.208;3.288;2022-10-19T08:15:36;13.70;99.90
61145;DHT22;47026;51.208;3.288;2022-10-19T08:18:02;13.80;99.90
61145;DHT22;47026;51.208;3.288;2022-10-19T08:20:31;14.50;99.90
61145;DHT22;47026;51.208;3.288;2022-10-19T08:22:56;14.90;99.90
61145;DHT22;47026;51.208;3.288;2022-10-19T08:25:22;15.20;99.90
61145;DHT22;47026;51.208;3.288;2022-10-19T08:27:48;15.70;99.90
61145;DHT22;47026;51.208;3.288;2022-10-19T08:30:14;16.50;99.90
61145;DHT22;47026;51.208;3.288;2022-10-19T08:32:40;17.20;99.90
61145;DHT22;47026;51.208;3.288;2022-10-19T08:35:06;17.40;99.90
61145;DHT22;47026;51.208;3.288;2022-10-19T08:37:32;17.70;99.90
61145;DHT22;47026;51.208;3.288;2022-10-19T08:39:57;18.00;99.90
61145;DHT22;47026;51.208;3.288;2022-10-19T08:42:44;17.60;99.90
61145;DHT22;47026;51.208;3.288;2022-10-19T08:50:28;18.20;99.90
61145;DHT22;47026;51.208;3.288;2022-10-19T08:53:09;18.40;99.90
61145;DHT22;47026;51.208;3.288;2022-10-19T08:56:27;19.60;99.90
61145;DHT22;47026;51.208;3.288;2022-10-19T08:58:42;18.70;99.90
61145;DHT22;47026;51.208;3.288;2022-10-19T09:10:00;20.30;99.90
61145;DHT22;47026;51.208;3.288;2022-10-19T09:15:14;22.00;99.90
61145;DHT22;47026;51.208;3.288;2022-10-19T09:17:40;21.80;99.90
61145;DHT22;47026;51.208;3.288;2022-10-19T09:20:20;20.80;99.90
61145;DHT22;47026;51.208;3.288;2022-10-19T09:22:55;20.80;99.90
61145;DHT22;47026;51.208;3.288;2022-10-19T09:25:24;20.60;99.90
61145;DHT22;47026;51.208;3.288;2022-10-19T09:31:16;21.20;99.90
61145;DHT22;47026;51.208;3.288;2022-10-19T09:33:49;21.10;99.90
61145;DHT22;47026;51.208;3.288;2022-10-19T09:36:16;21.30;99.90
61145;DHT22;47026;51.208;3.288;2022-10-19T09:38:42;21.90;99.90
61145;DHT22;47026;51.208;3.288;2022-10-19T09:41:26;20.50;99.90
61145;DHT22;47026;51.208;3.288;2022-10-19T09:43:53;22.10;99.90
61145;DHT22;47026;51.208;3.288;2022-10-19T09:48:52;21.90;99.90
61145;DHT22;47026;51.208;3.288;2022-10-19T09:51:19;22.20;99.90
61145;DHT22;47026;51.208;3.288;2022-10-19T09:53:53;22.30;99.90
61145;DHT22;47026;51.208;3.288;2022-10-19T09:56:24;23.00;99.90
61145;DHT22;47026;51.208;3.288;2022-10-19T09:58:53;22.00;99.90
61145;DHT22;47026;51.208;3.288;2022-10-19T10:01:34;21.00;99.90
61145;DHT22;47026;51.208;3.288;2022-10-19T10:04:08;20.10;99.90
61145;DHT22;47026;51.208;3.288;2022-10-19T10:06:36;19.90;99.90
61145;DHT22;47026;51.208;3.288;2022-10-19T10:09:04;18.80;99.90
61145;DHT22;47026;51.208;3.288;2022-10-19T10:11:33;18.50;99.90
61145;DHT22;47026;51.208;3.288;2022-10-19T10:14:11;18.20;99.90
61145;DHT22;47026;51.208;3.288;2022-10-19T10:16:41;17.30;99.90
61145;DHT22;47026;51.208;3.288;2022-10-19T10:19:11;17.40;99.90
61145;DHT22;47026;51.208;3.288;2022-10-19T10:21:49;16.90;99.90
61145;DHT22;47026;51.208;3.288;2022-10-19T10:24:24;16.70;99.90
61145;DHT22;47026;51.208;3.288;2022-10-19T10:26:52;16.80;99.90
61145;DHT22;47026;51.208;3.288;2022-10-19T10:29:22;16.70;99.90
61145;DHT22;47026;51.208;3.288;2022-10-19T10:32:32;16.60;99.90
61145;DHT22;47026;51.208;3.288;2022-10-19T10:34:44;16.80;99.90
61145;DHT22;47026;51.208;3.288;2022-10-19T10:37:23;16.70;99.90
61145;DHT22;47026;51.208;3.288;2022-10-19T10:39:54;16.90;99.90
61145;DHT22;47026;51.208;3.288;2022-10-19T10:42:30;17.00;99.90
61145;DHT22;47026;51.208;3.288;2022-10-19T10:44:57;17.20;99.90
61145;DHT22;47026;51.208;3.288;2022-10-19T10:47:24;17.10;99.90
61145;DHT22;47026;51.208;3.288;2022-10-19T10:49:55;17.30;99.90
61145;DHT22;47026;51.208;3.288;2022-10-19T10:52:21;17.30;99.90
61145;DHT22;47026;51.208;3.288;2022-10-19T10:55:16;17.70;99.90
61145;DHT22;47026;51.208;3.288;2022-10-19T10:57:50;17.70;99.90
61145;DHT22;47026;51.208;3.288;2022-10-19T11:00:50;17.40;99.90
61145;DHT22;47026;51.208;3.288;2022-10-19T11:03:19;17.30;99.90
61145;DHT22;47026;51.208;3.288;2022-10-19T11:05:55;17.10;99.90
61145;DHT22;47026;51.208;3.288;2022-10-19T11:11:16;17.40;99.90
61145;DHT22;47026;51.208;3.288;2022-10-19T11:13:49;17.30;99.90
61145;DHT22;47026;51.208;3.288;2022-10-19T11:16:22;17.30;99.90
61145;DHT22;47026;51.208;3.288;2022-10-19T11:19:28;17.40;99.90
61145;DHT22;47026;51.208;3.288;2022-10-19T11:35:37;17.70;99.90
61145;DHT22;47026;51.208;3.288;2022-10-19T11:40:59;17.70;99.90
61145;DHT22;47026;51.208;3.288;2022-10-19T11:44:04;18.10;99.90
61145;DHT22;47026;51.208;3.288;2022-10-19T11:46:55;18.20;99.90
61145;DHT22;47026;51.208;3.288;2022-10-19T11:52:23;18.50;99.90
61145;DHT22;47026;51.208;3.288;2022-10-19T11:57:48;20.30;99.90
61145;DHT22;47026;51.208;3.288;2022-10-19T12:00:19;20.40;99.90
61145;DHT22;47026;51.208;3.288;2022-10-19T12:11:39;24.80;99.90
61145;DHT22;47026;51.208;3.288;2022-10-19T12:14:16;27.20;99.90
61145;DHT22;47026;51.208;3.288;2022-10-19T12:17:09;28.30;99.90
61145;DHT22;47026;51.208;3.288;2022-10-19T12:19:43;28.60;99.90
61145;DHT22;47026;51.208;3.288;2022-10-19T12:22:25;28.50;99.90
61145;DHT22;47026;51.208;3.288;2022-10-19T12:25:04;27.00;99.90
61145;DHT22;47026;51.208;3.288;2022-10-19T12:27:36;26.30;99.90
61145;DHT22;47026;51.208;3.288;2022-10-19T12:32:48;26.50;99.90
61145;DHT22;47026;51.208;3.288;2022-10-19T12:46:41;27.90;99.90
61145;DHT22;47026;51.208;3.288;2022-10-19T12:51:55;30.70;99.90
61145;DHT22;47026;51.208;3.288;2022-10-19T12:54:23;30.60;98.60
61145;DHT22;47026;51.208;3.288;2022-10-19T12:56:54;30.70;99.40
61145;DHT22;47026;51.208;3.288;2022-10-19T13:01:52;30.10;98.10
61145;DHT22;47026;51.208;3.288;2022-10-19T13:04:21;26.90;99.90
61145;DHT22;47026;51.208;3.288;2022-10-19T13:06:49;25.50;99.90
61145;DHT22;47026;51.208;3.288;2022-10-19T13:09:35;24.50;99.90
61145;DHT22;47026;51.208;3.288;2022-10-19T13:15:00;26.10;99.90
61145;DHT22;47026;51.208;3.288;2022-10-19T13:23:36;23.60;99.90
61145;DHT22;47026;51.208;3.288;2022-10-19T13:25:40;23.30;99.90
61145;DHT22;47026;51.208;3.288;2022-10-19T14:00:21;19.20;99.90
61145;DHT22;47026;51.208;3.288;2022-10-19T14:08:35;19.10;99.90
61145;DHT22;47026;51.208;3.288;2022-10-19T14:11:24;19.10;99.90
61145;DHT22;47026;51.208;3.288;2022-10-19T14:14:27;18.80;99.90
61145;DHT22;47026;51.208;3.288;2022-10-19T14:16:58;18.70;99.90
61145;DHT22;47026;51.208;3.288;2022-10-19T14:19:32;18.90;99.90
61145;DHT22;47026;51.208;3.288;2022-10-19T14:25:28;19.10;99.90
61145;DHT22;47026;51.208;3.288;2022-10-19T14:28:04;18.60;99.90
61145;DHT22;47026;51.208;3.288;2022-10-19T14:30:34;18.50;99.90
61145;DHT22;47026;51.208;3.288;2022-10-19T14:33:05;18.50;99.90
61145;DHT22;47026;51.208;3.288;2022-10-19T15:01:59;17.40;99.90
61145;DHT22;47026;51.208;3.288;2022-10-19T15:04:29;17.40;99.90
61145;DHT22;47026;51.208;3.288;2022-10-19T15:06:56;17.40;99.90
61145;DHT22;47026;51.208;3.288;2022-10-19T15:09:30;17.40;99.90
61145;DHT22;47026;51.208;3.288;2022-10-19T15:12:06;17.40;99.90
61145;DHT22;47026;51.208;3.288;2022-10-19T15:14:34;17.60;99.90
61145;DHT22;47026;51.208;3.288;2022-10-19T15:17:02;17.60;99.90
61145;DHT22;47026;51.208;3.288;2022-10-19T15:27:41;17.90;99.90
61145;DHT22;47026;51.208;3.288;2022-10-19T15:32:50;17.90;99.90
61145;DHT22;47026;51.208;3.288;2022-10-19T15:40:39;17.80;99.90
61145;DHT22;47026;51.208;3.288;2022-10-19T15:56:17;17.30;99.90
61145;DHT22;47026;51.208;3.288;2022-10-19T15:58:42;17.10;99.90
61145;DHT22;47026;51.208;3.288;2022-10-19T16:01:19;17.10;99.90
61145;DHT22;47026;51.208;3.288;2022-10-19T16:03:47;17.20;99.90
61145;DHT22;47026;51.208;3.288;2022-10-19T16:06:14;17.00;99.90
61145;DHT22;47026;51.208;3.288;2022-10-19T16:08:40;17.20;99.90
61145;DHT22;47026;51.208;3.288;2022-10-19T16:11:12;16.80;99.90
61145;DHT22;47026;51.208;3.288;2022-10-19T16:13:38;16.70;99.90
61145;DHT22;47026;51.208;3.288;2022-10-19T16:16:05;16.70;99.90
61145;DHT22;47026;51.208;3.288;2022-10-19T16:18:32;16.50;99.90
61145;DHT22;47026;51.208;3.288;2022-10-19T16:20:57;16.50;99.90
61145;DHT22;47026;51.208;3.288;2022-10-19T16:23:23;16.40;99.90
61145;DHT22;47026;51.208;3.288;2022-10-19T16:25:49;16.60;99.90
61145;DHT22;47026;51.208;3.288;2022-10-19T16:28:15;16.50;99.90
61145;DHT22;47026;51.208;3.288;2022-10-19T16:30:41;16.50;99.90
61145;DHT22;47026;51.208;3.288;2022-10-19T16:33:06;16.30;99.90
61145;DHT22;47026;51.208;3.288;2022-10-19T16:35:32;16.20;99.90
61145;DHT22;47026;51.208;3.288;2022-10-19T16:37:57;15.90;99.90
61145;DHT22;47026;51.208;3.288;2022-10-19T16:40:23;15.90;99.90
61145;DHT22;47026;51.208;3.288;2022-10-19T16:42:49;15.90;99.90
61145;DHT22;47026;51.208;3.288;2022-10-19T16:45:15;15.70;99.90
61145;DHT22;47026;51.208;3.288;2022-10-19T16:47:40;15.50;99.90
61145;DHT22;47026;51.208;3.288;2022-10-19T16:50:06;15.50;99.90
61145;DHT22;47026;51.208;3.288;2022-10-19T16:52:32;15.40;99.90
61145;DHT22;47026;51.208;3.288;2022-10-19T16:54:58;15.40;99.90
61145;DHT22;47026;51.208;3.288;2022-10-19T16:57:24;15.50;99.90
61145;DHT22;47026;51.208;3.288;2022-10-19T16:59:50;15.40;99.90
61145;DHT22;47026;51.208;3.288;2022-10-19T17:02:16;15.50;99.90
61145;DHT22;47026;51.208;3.288;2022-10-19T17:04:42;15.50;99.90
61145;DHT22;47026;51.208;3.288;2022-10-19T17:07:08;15.40;99.90
61145;DHT22;47026;51.208;3.288;2022-10-19T17:09:34;15.40;99.90
61145;DHT22;47026;51.208;3.288;2022-10-19T17:11:59;15.40;99.90
61145;DHT22;47026;51.208;3.288;2022-10-19T17:14:25;15.40;99.90
61145;DHT22;47026;51.208;3.288;2022-10-19T17:16:51;15.40;99.90
61145;DHT22;47026;51.208;3.288;2022-10-19T17:19:16;15.30;99.90
61145;DHT22;47026;51.208;3.288;2022-10-19T17:21:42;15.20;99.90
61145;DHT22;47026;51.208;3.288;2022-10-19T17:24:12;15.10;99.90
61145;DHT22;47026;51.208;3.288;2022-10-19T17:26:40;15.00;99.90
61145;DHT22;47026;51.208;3.288;2022-10-19T17:29:07;15.00;99.90
61145;DHT22;47026;51.208;3.288;2022-10-19T17:31:34;15.00;99.90
61145;DHT22;47026;51.208;3.288;2022-10-19T17:34:00;15.00;99.90
61145;DHT22;47026;51.208;3.288;2022-10-19T17:36:28;14.90;99.90
61145;DHT22;47026;51.208;3.288;2022-10-19T17:38:54;14.80;99.90
61145;DHT22;47026;51.208;3.288;2022-10-19T17:41:20;14.70;99.90
61145;DHT22;47026;51.208;3.288;2022-10-19T17:43:47;14.70;99.90
61145;DHT22;47026;51.208;3.288;2022-10-19T17:46:15;14.70;99.90
61145;DHT22;47026;51.208;3.288;2022-10-19T17:48:42;14.70;99.90
61145;DHT22;47026;51.208;3.288;2022-10-19T17:51:12;14.70;99.90
61145;DHT22;47026;51.208;3.288;2022-10-19T17:53:40;14.70;99.90
61145;DHT22;47026;51.208;3.288;2022-10-19T17:56:07;14.60;99.90
61145;DHT22;47026;51.208;3.288;2022-10-19T17:58:34;14.90;99.90
61145;DHT22;47026;51.208;3.288;2022-10-19T18:01:00;14.80;99.90
61145;DHT22;47026;51.208;3.288;2022-10-19T18:03:29;14.90;99.90
61145;DHT22;47026;51.208;3.288;2022-10-19T18:06:03;14.80;99.90
61145;DHT22;47026;51.208;3.288;2022-10-19T18:08:30;14.60;99.90
61145;DHT22;47026;51.208;3.288;2022-10-19T18:11:01;14.60;99.90
61145;DHT22;47026;51.208;3.288;2022-10-19T18:13:27;14.60;99.90
61145;DHT22;47026;51.208;3.288;2022-10-19T18:15:57;14.70;99.90
61145;DHT22;47026;51.208;3.288;2022-10-19T18:18:23;14.60;99.90
61145;DHT22;47026;51.208;3.288;2022-10-19T18:20:49;14.60;99.90
61145;DHT22;47026;51.208;3.288;2022-10-19T18:23:15;14.60;99.90
61145;DHT22;47026;51.208;3.288;2022-10-19T18:25:40;14.50;99.90
61145;DHT22;47026;51.208;3.288;2022-10-19T18:28:06;14.40;99.90
61145;DHT22;47026;51.208;3.288;2022-10-19T18:30:35;14.30;99.90
61145;DHT22;47026;51.208;3.288;2022-10-19T18:33:01;14.30;99.90
61145;DHT22;47026;51.208;3.288;2022-10-19T18:35:26;14.30;99.90
61145;DHT22;47026;51.208;3.288;2022-10-19T18:37:52;14.30;99.90
61145;DHT22;47026;51.208;3.288;2022-10-19T18:40:17;14.30;99.90
61145;DHT22;47026;51.208;3.288;2022-10-19T18:42:43;14.30;99.90
61145;DHT22;47026;51.208;3.288;2022-10-19T18:45:08;14.20;99.90
61145;DHT22;47026;51.208;3.288;2022-10-19T18:47:34;14.10;99.90
61145;DHT22;47026;51.208;3.288;2022-10-19T18:50:00;14.00;99.90
61145;DHT22;47026;51.208;3.288;2022-10-19T18:52:25;14.10;99.90
61145;DHT22;47026;51.208;3.288;2022-10-19T18:54:51;14.00;99.90
61145;DHT22;47026;51.208;3.288;2022-10-19T18:57:16;14.20;99.90
61145;DHT22;47026;51.208;3.288;2022-10-19T18:59:42;14.20;99.90
61145;DHT22;47026;51.208;3.288;2022-10-19T19:02:09;14.20;99.90
61145;DHT22;47026;51.208;3.288;2022-10-19T19:04:36;14.10;99.90
61145;DHT22;47026;51.208;3.288;2022-10-19T19:07:02;14.00;99.90
61145;DHT22;47026;51.208;3.288;2022-10-19T19:09:28;14.00;99.90
61145;DHT22;47026;51.208;3.288;2022-10-19T19:11:54;13.90;99.90
61145;DHT22;47026;51.208;3.288;2022-10-19T19:14:22;13.90;99.90
61145;DHT22;47026;51.208;3.288;2022-10-19T19:16:50;13.90;99.90